Airfield :
LOGIN :

Register | Disclaimer

   EN    FR    IT 

 










Legend :    VFR   Marginal VFR   IFR   Intensive IFR   Very Intensive IFR
Visi :
Ceiling :
>= 8 km
>= 3000ft
5 to 8 km
1000 to 3000 ft
1500m to 5 km
500 to 1000 ft
800 to 1500m
200 to 500 ft
< 800m
< 200 ft
Symbols :   Thunderstorms  Fog  Heavy snow  Heavy precipitations  Wind > 20 kt
SIGMETs :     Misc.  Thunderstorms  Icing  Turbulence  Mountain Waves  Volcanic Ashes






- Airport Elevation : 24 ft
- IATA code : SGD


EKSB - Sonderborg

CURRENT METAR :
  • 041050Z 23012G22KT 190V270 9999 SCT035TCU SCT080 20/13 Q1016

EXPIRED METARs :
  • 041020Z 24010KT 170V280 9999 SCT025TCU BKN080 19/13 Q1016
  • 040950Z 23009KT 190V270 9999 -SHRA SCT025TCU BKN080 18/13 Q1016
  • 040920Z 23010KT 180V280 9999 SCT030TCU BKN220 19/14 Q1016
  • 040850Z 25007KT 200V290 9999 -SHRA FEW015 SCT025TCU BKN220 17/14 Q1016

TAF TAF EKSB
Valid from the 04 at 09:00 until the 04 at 18:00 UTC


040855Z 0409/0418 25010KT 9999 SCT025
TEMPO 0409/0418 FEW020TCU



MET'MAP, your aeronautical weather chart ! - Copyright ORBIFLY December 2007 - Disclaimer

ORBIFLY MET'MAP TEAM :

Programming & Development : Alexandra Zaïnal
Original concept : Baudouin d'Aumeries
Technical & hardware support : Manuel Goepfert
Assistance : Marc-Olivier Méhu




SOURCES & CREDITS :

   NOAA